Terminal Aerodrome Forecast
Issued by NWS Goodland, KS

Home | Current Version | Previous Version | Text Only | Print | Product List | Glossary On
Versions: 1 2 3 4 5 6 7 8 9 10 11 12
000
FTUS43 KGLD 250532
TAFGLD
TAF
KGLD 250532Z 2506/2606 31020G30KT P6SM SCT110
     FM251600 33023G35KT P6SM FEW150 SCT250
     FM260000 30008KT P6SM SCT080 SCT200=

USA.gov is the U.S. government's official web portal to all federal, state and local government web resources and services.